Cairnwell, United Kingdom
Current Conditions -  °F | °C
As of 8:20 PM on Thursday 23 Oct 2014 (Local Time) from EGPN Reporting Station
Rain Showers Rain Showers  
Wind Chill: 57°   Ceiling: 1200
Heat Index: 57°   Visibility: 4mi
Dew Point: 54°   Wind: 20mph
Humidity: 88%   Direction: 240°WSW
Pressure: 29.65"   Gusts: NA
Location:  56.88°N, 3.42°W
Report Text: EGPN 231920Z 24017KT 6000 SHRA BKN012 14/12 Q1004
Loading
Personal Weather Stations






























Interactive Weather Map
Tropical Storm Tracking
New forecast layout! Learn more

10-Day Weather Forecast

Advertisements
Track Severe Weather on mobile